Time;durP1;ratioP1;P1;durP2;ratioP2;P2;SDS_P1;SDS_P2;PMS_P1;PMS_P2;Temp;Humidity;BMP_temperature;BMP_pressure;BME280_temperature;BME280_humidity;BME280_pressure;Samples;Min_cycle;Max_cycle;Signal;HPM_P1;HPM_P2
2022/10/08 00:01:50;;;;;;;13.20;2.92;;;;;;;11.99;100.00;101569.69;5336941;27;20036;-82
2022/10/08 00:04:21;;;;;;;12.80;3.20;;;;;;;11.93;100.00;101555.03;5339804;27;20209;-82
2022/10/08 00:06:53;;;;;;;8.68;3.13;;;;;;;11.95;100.00;101560.25;5332852;27;20100;-82
2022/10/08 00:09:24;;;;;;;8.40;2.83;;;;;;;11.94;100.00;101562.09;5338335;27;20028;-82
2022/10/08 00:11:56;;;;;;;14.70;3.55;;;;;;;11.95;100.00;101554.91;5315467;28;20558;-82
2022/10/08 00:14:27;;;;;;;12.50;3.58;;;;;;;11.96;100.00;101554.78;5316284;28;20040;-82
2022/10/08 00:16:59;;;;;;;13.43;3.20;;;;;;;11.98;100.00;101550.16;5318719;28;20024;-82
2022/10/08 00:19:30;;;;;;;9.15;2.72;;;;;;;11.98;100.00;101554.66;5310578;27;20063;-82
2022/10/08 00:22:01;;;;;;;16.17;3.50;;;;;;;11.99;100.00;101551.84;5318981;27;20024;-82
2022/10/08 00:24:34;;;;;;;13.98;3.58;;;;;;;12.08;100.00;101559.06;5315670;28;20024;-82
2022/10/08 00:27:05;;;;;;;9.98;3.08;;;;;;;12.06;100.00;101560.16;5315670;28;20453;-82
2022/10/08 00:29:37;;;;;;;13.90;3.40;;;;;;;12.10;100.00;101562.44;5316718;27;20012;-82
2022/10/08 00:32:09;;;;;;;14.32;3.20;;;;;;;12.14;100.00;101565.69;5318866;27;20062;-82
2022/10/08 00:34:42;;;;;;;10.15;2.90;;;;;;;12.17;100.00;101560.06;5318092;27;20110;-82
2022/10/08 00:37:14;;;;;;;21.27;3.45;;;;;;;12.17;100.00;101552.06;5318062;27;20034;-82
2022/10/08 00:39:45;;;;;;;11.05;2.88;;;;;;;12.23;100.00;101556.00;5312925;27;20024;-82
2022/10/08 00:42:17;;;;;;;9.68;3.28;;;;;;;12.25;100.00;101551.38;5322285;27;20024;-81
2022/10/08 00:44:53;;;;;;;15.85;2.92;;;;;;;12.31;100.00;101564.22;5319743;27;20027;-82
2022/10/08 00:47:32;;;;;;;13.25;3.00;;;;;;;12.32;100.00;101557.84;5317176;27;20043;-82
2022/10/08 00:50:19;;;;;;;16.27;3.85;;;;;;;12.31;100.00;101558.84;5320606;28;20527;-82
2022/10/08 00:53:02;;;;;;;11.18;3.13;;;;;;;12.37;100.00;101565.47;5320190;28;20120;-82
2022/10/08 00:55:37;;;;;;;14.68;3.30;;;;;;;12.32;100.00;101554.34;5316493;27;20146;-82
2022/10/08 00:58:16;;;;;;;11.27;3.25;;;;;;;12.31;100.00;101556.19;5319661;27;20024;-82
2022/10/08 01:00:48;;;;;;;14.02;3.35;;;;;;;12.41;100.00;101570.44;5318833;28;20071;-80
2022/10/08 01:03:20;;;;;;;10.88;3.03;;;;;;;12.45;100.00;101569.16;5318166;27;20425;-82
2022/10/08 01:06:04;;;;;;;13.43;3.30;;;;;;;12.47;100.00;101582.41;5315518;27;20036;-82
2022/10/08 01:08:56;;;;;;;12.60;2.78;;;;;;;12.53;100.00;101584.53;5318645;27;20559;-82
2022/10/08 01:11:46;;;;;;;11.55;3.28;;;;;;;12.38;100.00;101589.44;5339356;27;20168;-82
2022/10/08 01:14:37;;;;;;;10.77;3.65;;;;;;;12.36;100.00;101590.53;5342071;27;20027;-82
2022/10/08 01:17:36;;;;;;;14.15;3.55;;;;;;;12.09;100.00;101584.81;5339168;27;20032;-82
2022/10/08 01:20:40;;;;;;;14.40;3.00;;;;;;;12.02;100.00;101593.50;5339580;27;20056;-82
2022/10/08 01:23:28;;;;;;;15.23;3.47;;;;;;;11.97;100.00;101603.75;5339432;27;20214;-82
2022/10/08 01:25:59;;;;;;;10.77;3.22;;;;;;;11.89;100.00;101597.22;5341661;27;20024;-83
2022/10/08 01:28:33;;;;;;;11.40;3.20;;;;;;;11.77;100.00;101579.56;5341509;27;20452;-83
2022/10/08 01:31:12;;;;;;;10.43;3.40;;;;;;;11.79;100.00;101579.44;5341410;27;20038;-83
2022/10/08 01:34:02;;;;;;;11.57;3.22;;;;;;;11.79;100.00;101600.81;5337571;27;20030;-83
2022/10/08 01:36:42;;;;;;;8.57;3.10;;;;;;;11.72;100.00;101593.31;5342147;27;20532;-83
2022/10/08 01:39:18;;;;;;;12.88;3.67;;;;;;;11.59;100.00;101587.34;5339533;27;20389;-83
2022/10/08 01:41:57;;;;;;;11.02;3.00;;;;;;;11.45;100.00;101571.63;5339671;27;20020;-83
2022/10/08 01:44:36;;;;;;;9.40;3.28;;;;;;;11.58;100.00;101599.00;5337307;27;20042;-83
2022/10/08 01:47:11;;;;;;;11.27;3.70;;;;;;;11.59;100.00;101602.50;5339504;27;20607;-83
2022/10/08 01:49:49;;;;;;;11.55;3.50;;;;;;;11.50;100.00;101598.78;5336282;27;20024;-83
2022/10/08 01:52:27;;;;;;;10.77;3.45;;;;;;;11.42;100.00;101578.06;5338892;27;20067;-83
2022/10/08 01:55:03;;;;;;;14.13;3.78;;;;;;;11.41;100.00;101591.56;5339608;27;20024;-83
2022/10/08 01:57:36;;;;;;;7.38;2.63;;;;;;;11.28;100.00;101586.41;5339611;27;20140;-84
2022/10/08 02:00:12;;;;;;;8.60;2.83;;;;;;;11.31;100.00;101599.50;5322999;27;20023;-84
2022/10/08 02:02:44;;;;;;;9.33;3.43;;;;;;;11.35;100.00;101619.63;5341904;27;20038;-84
2022/10/08 02:05:15;;;;;;;12.43;2.80;;;;;;;11.34;100.00;101615.25;5341579;27;20021;-84
2022/10/08 02:07:46;;;;;;;8.10;2.90;;;;;;;11.26;100.00;101615.91;5342341;27;20164;-85
2022/10/08 02:10:22;;;;;;;11.05;3.13;;;;;;;11.28;100.00;101621.97;5341845;27;20043;-84
2022/10/08 02:12:54;;;;;;;8.70;2.50;;;;;;;11.19;100.00;101611.22;5340898;27;20023;-84
2022/10/08 02:15:37;;;;;;;14.00;3.63;;;;;;;11.19;100.00;101611.22;5342741;27;20023;-84
2022/10/08 02:18:21;;;;;;;10.10;2.65;;;;;;;11.06;100.00;101609.56;5339760;27;20012;-85
2022/10/08 02:20:58;;;;;;;10.40;3.33;;;;;;;11.06;100.00;101614.91;5341085;27;20057;-85
2022/10/08 02:23:34;;;;;;;12.68;2.28;;;;;;;11.03;100.00;101615.16;5339006;27;20103;-84
2022/10/08 02:26:13;;;;;;;9.95;2.63;;;;;;;11.03;100.00;101622.34;5339523;27;20476;-84
2022/10/08 02:29:12;;;;;;;8.57;2.65;;;;;;;11.00;100.00;101615.41;5341348;27;20023;-84
2022/10/08 02:31:55;;;;;;;9.85;2.10;;;;;;;10.82;100.00;101601.75;5320073;27;20043;-84
2022/10/08 02:34:34;;;;;;;9.65;2.30;;;;;;;10.92;100.00;101621.38;5340416;27;20164;-85
2022/10/08 02:37:15;;;;;;;10.43;2.60;;;;;;;10.88;100.00;101630.59;5320498;27;20382;-84
2022/10/08 02:39:52;;;;;;;9.48;2.47;;;;;;;10.88;100.00;101621.75;5341441;27;20661;-84
2022/10/08 02:42:27;;;;;;;8.35;2.95;;;;;;;11.03;100.00;101625.84;5336710;27;20032;-84
2022/10/08 02:45:10;;;;;;;6.90;2.55;;;;;;;10.85;100.00;101622.00;5339989;27;20024;-84
2022/10/08 02:47:45;;;;;;;9.60;2.20;;;;;;;10.72;100.00;101614.97;5338378;27;20027;-84
2022/10/08 02:50:21;;;;;;;6.53;2.30;;;;;;;10.70;100.00;101616.09;5337678;27;20062;-84
2022/10/08 02:52:53;;;;;;;6.82;2.05;;;;;;;10.75;100.00;101621.91;5339662;27;20097;-84
2022/10/08 02:55:47;;;;;;;9.10;2.42;;;;;;;10.79;100.00;101612.66;5339051;27;20024;-84
2022/10/08 02:58:19;;;;;;;9.27;1.90;;;;;;;10.71;100.00;101615.09;5340217;27;20024;-84
2022/10/08 03:01:14;;;;;;;6.82;2.53;;;;;;;10.63;100.00;101598.91;5341539;27;20065;-84
2022/10/08 03:03:49;;;;;;;7.05;2.40;;;;;;;10.64;100.00;101608.56;5321782;27;20079;-84
2022/10/08 03:06:21;;;;;;;8.57;2.40;;;;;;;10.57;100.00;101611.75;5319202;27;20373;-84
2022/10/08 03:08:55;;;;;;;7.00;2.20;;;;;;;10.62;100.00;101614.03;5336444;27;20032;-84
2022/10/08 03:11:29;;;;;;;7.43;2.30;;;;;;;10.59;100.00;101619.63;5340305;27;20071;-84
2022/10/08 03:14:04;;;;;;;7.63;2.40;;;;;;;10.62;100.00;101623.88;5340388;27;20161;-84
2022/10/08 03:16:41;;;;;;;8.48;2.78;;;;;;;10.60;100.00;101629.31;5335044;27;20044;-84
2022/10/08 03:19:15;;;;;;;13.18;3.00;;;;;;;10.59;100.00;101624.97;5339121;27;20024;-84
2022/10/08 03:21:49;;;;;;;11.10;2.58;;;;;;;10.58;100.00;101626.78;5337247;27;20103;-84
2022/10/08 03:24:20;;;;;;;10.70;2.70;;;;;;;10.57;100.00;101629.56;5337920;27;20071;-84
2022/10/08 03:26:53;;;;;;;8.30;2.72;;;;;;;10.71;100.00;101640.00;5338495;27;20477;-83
2022/10/08 03:29:24;;;;;;;10.90;2.67;;;;;;;10.60;100.00;101631.97;5320130;27;20032;-84
2022/10/08 03:31:55;;;;;;;10.55;2.72;;;;;;;10.50;100.00;101628.34;5321973;27;20031;-83
2022/10/08 03:34:27;;;;;;;7.75;2.70;;;;;;;10.60;100.00;101648.00;5340128;27;20481;-84
2022/10/08 03:36:58;;;;;;;10.27;3.05;;;;;;;10.67;100.00;101651.03;5322056;27;20385;-83
2022/10/08 03:39:30;;;;;;;11.07;2.95;;;;;;;10.51;100.00;101648.75;5340571;27;20539;-84
2022/10/08 03:42:01;;;;;;;8.27;2.47;;;;;;;10.51;100.00;101640.72;5338869;27;20457;-83
2022/10/08 03:44:33;;;;;;;8.48;3.13;;;;;;;10.53;100.00;101654.78;5340762;27;20024;-83
2022/10/08 03:47:04;;;;;;;10.75;3.28;;;;;;;10.49;100.00;101664.03;5318607;27;20036;-83
2022/10/08 03:49:35;;;;;;;8.73;3.33;;;;;;;10.37;100.00;101656.00;5340273;27;20020;-83
2022/10/08 03:52:07;;;;;;;12.20;4.32;;;;;;;10.31;100.00;101655.59;5342485;27;20425;-84
2022/10/08 03:54:38;;;;;;;8.48;3.25;;;;;;;10.22;100.00;101662.53;5340665;27;20024;-83
2022/10/08 03:57:10;;;;;;;7.22;3.22;;;;;;;10.09;100.00;101651.13;5336425;27;20092;-83
2022/10/08 03:59:41;;;;;;;12.30;3.97;;;;;;;10.11;100.00;101652.69;5339083;27;20035;-83
2022/10/08 04:02:13;;;;;;;13.38;4.22;;;;;;;10.05;100.00;101663.84;5338443;27;20126;-83
2022/10/08 04:04:44;;;;;;;8.85;4.15;;;;;;;10.02;100.00;101662.25;5333110;27;20077;-83
2022/10/08 04:07:16;;;;;;;8.00;3.50;;;;;;;9.92;100.00;101666.63;5320280;27;20512;-83
2022/10/08 04:09:47;;;;;;;5.45;3.67;;;;;;;9.92;100.00;101674.59;5338159;27;20048;-83
2022/10/08 04:12:19;;;;;;;9.13;4.95;;;;;;;10.05;100.00;101668.31;5339979;27;20050;-83
2022/10/08 04:14:50;;;;;;;13.45;5.72;;;;;;;9.94;100.00;101661.13;5343429;27;20035;-82
2022/10/08 04:17:21;;;;;;;13.65;5.95;;;;;;;9.90;100.00;101649.03;5322206;27;20029;-82
2022/10/08 04:19:53;;;;;;;14.90;7.22;;;;;;;10.05;100.00;101669.16;5344234;27;20397;-82
2022/10/08 04:22:25;;;;;;;16.75;9.82;;;;;;;10.20;100.00;101670.66;5338101;27;20131;-82
2022/10/08 04:24:57;;;;;;;17.77;10.88;;;;;;;10.22;100.00;101682.03;5338837;27;20036;-82
2022/10/08 04:27:28;;;;;;;21.27;13.48;;;;;;;10.16;100.00;101652.34;5339827;27;20669;-82
2022/10/08 04:29:59;;;;;;;31.55;17.25;;;;;;;10.35;100.00;101681.09;5341462;27;20103;-82
2022/10/08 04:32:31;;;;;;;28.63;17.45;;;;;;;10.36;100.00;101681.00;5340538;27;20549;-83
2022/10/08 04:35:02;;;;;;;33.70;20.35;;;;;;;10.32;100.00;101679.50;5342770;27;20027;-83
2022/10/08 04:37:35;;;;;;;34.53;20.63;;;;;;;10.43;100.00;101689.38;5341350;27;20024;-82
2022/10/08 04:40:07;;;;;;;36.20;23.05;;;;;;;10.44;100.00;101684.88;5340142;27;20097;-82
2022/10/08 04:42:38;;;;;;;46.17;25.42;;;;;;;10.55;100.00;101688.41;5322876;27;20031;-83
2022/10/08 04:45:10;;;;;;;44.80;25.23;;;;;;;10.63;100.00;101692.28;5341246;27;20020;-82
2022/10/08 04:47:42;;;;;;;51.78;29.75;;;;;;;10.62;100.00;101699.41;5341017;27;20069;-83
2022/10/08 04:50:13;;;;;;;49.53;28.05;;;;;;;10.76;100.00;101709.84;5340931;27;20023;-83
2022/10/08 04:52:45;;;;;;;56.17;32.35;;;;;;;10.75;100.00;101709.97;5341267;27;20043;-83
2022/10/08 04:55:16;;;;;;;54.08;31.27;;;;;;;10.73;100.00;101714.59;5339794;27;20065;-83
2022/10/08 04:57:48;;;;;;;57.60;33.75;;;;;;;10.85;100.00;101720.75;5341090;27;20491;-83
2022/10/08 05:00:19;;;;;;;63.33;35.60;;;;;;;10.83;100.00;101725.34;5340757;27;20051;-83
2022/10/08 05:02:50;;;;;;;67.07;37.72;;;;;;;10.83;100.00;101720.84;5340829;27;20035;-83
2022/10/08 05:05:22;;;;;;;68.90;36.40;;;;;;;10.85;100.00;101723.41;5339990;27;20102;-83
2022/10/08 05:07:55;;;;;;;72.15;38.25;;;;;;;10.92;100.00;101732.63;5340236;27;20111;-83
2022/10/08 05:10:27;;;;;;;66.22;38.53;;;;;;;10.89;100.00;101730.22;5319688;27;20116;-83
2022/10/08 05:12:58;;;;;;;68.43;40.60;;;;;;;10.92;100.00;101732.63;5343907;27;20039;-84
2022/10/08 05:15:30;;;;;;;71.85;38.72;;;;;;;10.90;100.00;101735.41;5340348;27;20027;-83
2022/10/08 05:18:01;;;;;;;74.97;41.95;;;;;;;10.91;100.00;101720.25;5319558;27;20019;-83
2022/10/08 05:20:35;;;;;;;74.15;43.28;;;;;;;11.00;100.00;101740.03;5337865;27;20024;-83
2022/10/08 05:23:06;;;;;;;76.43;43.58;;;;;;;10.84;100.00;101724.41;5324177;27;21547;-83
2022/10/08 05:25:37;;;;;;;78.80;43.40;;;;;;;10.85;100.00;101731.41;5339639;27;20020;-83
2022/10/08 05:28:09;;;;;;;74.35;41.45;;;;;;;10.89;100.00;101741.72;5337436;27;20023;-82
2022/10/08 05:30:40;;;;;;;83.93;43.05;;;;;;;10.94;100.00;101746.72;5338231;27;20428;-83
2022/10/08 05:33:12;;;;;;;78.75;41.65;;;;;;;10.83;100.00;101744.88;5337276;27;21950;-83
2022/10/08 05:35:43;;;;;;;85.70;44.65;;;;;;;10.78;100.00;101739.94;5341222;27;20032;-83
2022/10/08 05:38:14;;;;;;;79.38;45.13;;;;;;;10.83;100.00;101747.53;5339594;27;20125;-83
2022/10/08 05:40:46;;;;;;;78.63;43.00;;;;;;;10.84;100.00;101751.09;5338718;27;20138;-83
2022/10/08 05:43:17;;;;;;;78.32;41.85;;;;;;;10.81;100.00;101759.31;5339330;27;20361;-83
2022/10/08 05:45:50;;;;;;;79.05;42.67;;;;;;;10.83;100.00;101770.72;5340198;27;20106;-83
2022/10/08 05:48:21;;;;;;;81.72;42.20;;;;;;;10.83;100.00;101760.88;5340092;27;20093;-83
2022/10/08 05:50:52;;;;;;;79.53;41.25;;;;;;;10.79;100.00;101767.44;5340244;27;20067;-83
2022/10/08 05:53:24;;;;;;;85.30;42.80;;;;;;;10.74;100.00;101762.47;5338445;27;20050;-83
2022/10/08 05:56:07;;;;;;;83.65;42.90;;;;;;;10.84;100.00;101780.44;5320513;27;20108;-83
2022/10/08 05:58:45;;;;;;;85.90;42.97;;;;;;;10.79;100.00;101783.47;5341573;27;20043;-83
2022/10/08 06:01:25;;;;;;;88.13;45.08;;;;;;;10.66;100.00;101780.06;5342623;27;20075;-83
2022/10/08 06:04:01;;;;;;;85.60;43.33;;;;;;;10.67;100.00;101784.44;5319511;27;20042;-83
2022/10/08 06:06:37;;;;;;;87.28;42.10;;;;;;;10.63;100.00;101786.50;5340895;27;20719;-83
2022/10/08 06:09:13;;;;;;;83.35;41.63;;;;;;;10.63;100.00;101791.81;5341898;27;20489;-83
2022/10/08 06:11:46;;;;;;;90.03;43.55;;;;;;;10.60;100.00;101792.91;5342310;27;20060;-83
2022/10/08 06:14:20;;;;;;;86.45;43.45;;;;;;;10.48;100.00;101783.19;5343165;27;20393;-83
2022/10/08 06:16:54;;;;;;;86.70;42.90;;;;;;;10.59;100.00;101807.22;5318016;27;20104;-83
2022/10/08 06:19:36;;;;;;;93.30;43.15;;;;;;;10.35;100.00;101801.94;5338601;27;20144;-83
2022/10/08 06:22:07;;;;;;;90.50;43.35;;;;;;;10.33;100.00;101806.56;5339792;27;20020;-83
2022/10/08 06:24:38;;;;;;;88.53;42.83;;;;;;;10.39;100.00;101806.06;5322027;27;20042;-83
2022/10/08 06:27:36;;;;;;;87.82;43.60;;;;;;;10.33;100.00;101803.91;5323016;27;20028;-82
2022/10/08 06:30:27;;;;;;;94.55;44.13;;;;;;;10.54;100.00;101824.56;5324067;27;20040;-84
2022/10/08 06:32:59;;;;;;;91.40;43.50;;;;;;;10.37;100.00;101812.50;5336289;27;20463;-84
2022/10/08 06:35:32;;;;;;;87.72;42.80;;;;;;;10.41;100.00;101808.63;5341548;27;20050;-82
2022/10/08 06:38:07;;;;;;;85.22;42.15;;;;;;;10.51;100.00;101843.47;5342047;27;20115;-85
2022/10/08 06:40:39;;;;;;;82.65;41.00;;;;;;;10.51;100.00;101822.13;5341230;27;20062;-83
2022/10/08 06:43:16;;;;;;;88.50;44.22;;;;;;;10.62;100.00;101831.97;5341068;27;20476;-84
2022/10/08 06:45:48;;;;;;;90.70;43.78;;;;;;;10.63;100.00;101847.84;5321638;27;20126;-83
2022/10/08 06:48:19;;;;;;;78.68;40.92;;;;;;;10.92;100.00;101864.28;5321779;27;20453;-83
2022/10/08 06:50:58;;;;;;;78.88;42.33;;;;;;;11.13;100.00;101869.75;5322599;27;20500;-83
2022/10/08 06:53:30;;;;;;;72.45;40.40;;;;;;;11.14;100.00;101876.78;5337606;27;20366;-83
2022/10/08 06:56:05;;;;;;;68.60;39.58;;;;;;;11.37;100.00;101868.78;5339276;27;20038;-83
2022/10/08 06:58:37;;;;;;;62.53;37.55;;;;;;;11.61;100.00;101881.16;5340565;27;21105;-83
2022/10/08 07:01:13;;;;;;;50.45;33.10;;;;;;;11.79;100.00;101889.47;5339095;27;20026;-83
2022/10/08 07:03:49;;;;;;;47.35;30.65;;;;;;;12.25;100.00;101889.25;5321659;27;20020;-83
2022/10/08 07:06:21;;;;;;;42.00;28.00;;;;;;;12.87;100.00;101902.81;5340463;27;20023;-83
2022/10/08 07:08:58;;;;;;;34.78;24.90;;;;;;;13.35;100.00;101906.75;5341350;27;20016;-83
2022/10/08 07:11:31;;;;;;;32.65;21.67;;;;;;;13.60;100.00;101908.09;5322016;27;20036;-84
2022/10/08 07:14:03;;;;;;;22.38;17.95;;;;;;;13.57;100.00;101922.63;5340103;27;20030;-84
2022/10/08 07:16:34;;;;;;;27.63;17.67;;;;;;;13.32;100.00;101912.34;5341292;27;20500;-84
2022/10/08 07:19:05;;;;;;;23.60;16.30;;;;;;;13.08;100.00;101915.31;5337961;27;20024;-84
2022/10/08 07:21:37;;;;;;;20.60;15.88;;;;;;;13.50;100.00;101915.25;5340061;27;20444;-84
2022/10/08 07:24:08;;;;;;;20.85;14.35;;;;;;;14.09;100.00;101917.09;5342112;27;20020;-84
2022/10/08 07:26:39;;;;;;;17.45;13.05;;;;;;;14.63;100.00;101924.78;5341513;27;20028;-84
2022/10/08 07:29:13;;;;;;;17.20;12.10;;;;;;;14.74;100.00;101913.88;5335100;27;20024;-84
2022/10/08 07:31:44;;;;;;;15.90;11.85;;;;;;;15.13;100.00;101911.94;5341228;27;20036;-84
2022/10/08 07:34:16;;;;;;;19.95;12.23;;;;;;;15.54;100.00;101924.25;5338499;27;20023;-84
2022/10/08 07:36:47;;;;;;;13.45;8.45;;;;;;;16.19;100.00;101914.22;5341782;27;20024;-83
2022/10/08 07:39:18;;;;;;;16.50;8.18;;;;;;;16.53;100.00;101926.16;5341705;27;20035;-83
2022/10/08 07:41:50;;;;;;;15.85;7.75;;;;;;;16.79;100.00;101926.19;5342253;27;20068;-83
2022/10/08 07:44:21;;;;;;;12.98;7.20;;;;;;;16.68;100.00;101921.91;5338516;27;20027;-84
2022/10/08 07:46:53;;;;;;;15.05;7.35;;;;;;;17.33;100.00;101931.44;5343854;27;20028;-84
2022/10/08 07:49:24;;;;;;;10.95;6.28;;;;;;;17.45;100.00;101929.31;5349442;27;20028;-83
2022/10/08 07:51:56;;;;;;;11.32;5.47;;;;;;;17.91;100.00;101932.56;5333539;27;20124;-83
2022/10/08 07:54:27;;;;;;;10.15;4.90;;;;;;;17.56;100.00;101926.34;5344617;27;20023;-84
2022/10/08 07:57:00;;;;;;;10.63;4.53;;;;;;;17.51;100.00;101921.44;5326201;27;20032;-83
2022/10/08 07:59:32;;;;;;;9.75;3.72;;;;;;;17.30;100.00;101927.25;5337940;27;20580;-81
2022/10/08 08:02:03;;;;;;;8.07;3.70;;;;;;;18.10;100.00;101940.38;5324444;27;20035;-83
2022/10/08 08:04:35;;;;;;;9.07;3.25;;;;;;;18.17;100.00;101934.31;5337199;27;20028;-84
2022/10/08 08:07:07;;;;;;;7.45;3.45;;;;;;;18.32;100.00;101954.25;5341317;27;20031;-82
2022/10/08 08:09:39;;;;;;;6.85;3.30;;;;;;;18.09;100.00;101949.50;5342928;27;20487;-83
2022/10/08 08:12:11;;;;;;;7.20;2.80;;;;;;;18.65;100.00;101952.44;5323976;27;20043;-83
2022/10/08 08:14:42;;;;;;;10.35;3.20;;;;;;;19.24;100.00;101960.31;5343989;27;20051;-83
2022/10/08 08:17:14;;;;;;;7.95;2.90;;;;;;;19.27;100.00;101967.25;5340554;27;20043;-81
2022/10/08 08:19:45;;;;;;;10.40;3.15;;;;;;;19.78;100.00;101962.38;5341964;27;20027;-82
2022/10/08 08:22:17;;;;;;;8.10;2.78;;;;;;;19.39;100.00;101960.47;5341680;27;20081;-82
2022/10/08 08:24:49;;;;;;;9.23;2.70;;;;;;;19.60;100.00;101962.59;5345866;27;20085;-83
2022/10/08 08:27:21;;;;;;;8.65;3.25;;;;;;;19.75;100.00;101975.41;5340839;27;20052;-81
2022/10/08 08:29:52;;;;;;;8.65;3.00;;;;;;;18.98;100.00;101959.69;5340410;27;20034;-81
2022/10/08 08:32:23;;;;;;;8.15;3.05;;;;;;;19.18;100.00;101974.53;5324248;27;20115;-81
2022/10/08 08:34:55;;;;;;;10.50;2.65;;;;;;;20.29;100.00;101982.75;5343279;27;20470;-82
2022/10/08 08:37:26;;;;;;;8.75;3.15;;;;;;;20.68;100.00;101992.66;5343293;27;20036;-83
2022/10/08 08:39:58;;;;;;;7.97;2.88;;;;;;;20.72;100.00;101996.69;5341375;27;20024;-83
2022/10/08 08:42:38;;;;;;;7.65;2.60;;;;;;;21.36;100.00;101998.97;5340909;27;20062;-82
2022/10/08 08:45:26;;;;;;;6.78;2.95;;;;;;;21.33;100.00;101999.34;5324361;27;20024;-81
2022/10/08 08:48:27;;;;;;;6.88;2.17;;;;;;;22.09;100.00;102008.16;5335852;27;20138;-82
2022/10/08 08:50:59;;;;;;;7.20;2.45;;;;;;;22.50;100.00;102016.78;5335439;27;20138;-82
2022/10/08 08:53:32;;;;;;;7.05;2.13;;;;;;;22.74;100.00;102007.38;5340702;27;20024;-82
2022/10/08 08:56:06;;;;;;;8.05;2.30;;;;;;;22.38;100.00;102005.56;5340062;27;20028;-82
2022/10/08 08:58:50;;;;;;;7.05;2.40;;;;;;;23.12;100.00;102018.00;5334137;27;20435;-82
2022/10/08 09:01:27;;;;;;;5.40;1.70;;;;;;;23.94;100.00;102025.44;5344147;27;20131;-82
2022/10/08 09:04:09;;;;;;;7.60;1.73;;;;;;;23.99;100.00;102013.09;5340485;27;20098;-82
2022/10/08 09:06:41;;;;;;;7.00;1.90;;;;;;;23.35;100.00;102023.19;5341582;27;20032;-84
2022/10/08 09:09:30;;;;;;;7.07;1.42;;;;;;;23.38;100.00;102011.91;5340950;27;20439;-83
2022/10/08 09:12:37;;;;;;;7.50;2.67;;;;;;;23.96;100.00;102028.78;5299127;28;20048;-83
2022/10/08 09:15:32;;;;;;;5.90;1.77;;;;;;;24.41;100.00;102011.97;5299285;28;20021;-83
2022/10/08 09:18:04;;;;;;;6.95;1.67;;;;;;;23.67;100.00;102021.72;5315444;28;20037;-84
2022/10/08 09:20:38;;;;;;;6.10;1.30;;;;;;;23.70;100.00;102034.06;5302263;28;20453;-83
2022/10/08 09:23:21;;;;;;;8.15;1.50;;;;;;;22.99;100.00;102035.03;5300450;28;20052;-83
2022/10/08 09:26:08;;;;;;;7.18;1.35;;;;;;;24.28;100.00;102033.72;5301822;28;20024;-84
2022/10/08 09:28:43;;;;;;;;;;;;;;;26.08;100.00;102041.06;5300666;28;20029;-83
2022/10/08 09:31:41;;;;;;;6.28;1.40;;;;;;;25.42;100.00;102054.69;5300160;28;19923;-82
2022/10/08 09:34:14;;;;;;;8.43;1.63;;;;;;;25.89;94.40;102051.00;5298179;28;20052;-84
2022/10/08 09:36:51;;;;;;;3.50;1.17;;;;;;;26.23;100.00;102058.03;5299525;28;20033;-83
2022/10/08 09:39:25;;;;;;;5.53;1.27;;;;;;;25.95;100.00;102052.91;5297248;28;20601;-83
2022/10/08 09:42:06;;;;;;;3.78;1.20;;;;;;;26.35;88.67;102071.84;5302626;28;20110;-83
2022/10/08 09:44:40;;;;;;;4.97;1.55;;;;;;;25.55;100.00;102070.19;5314343;27;20501;-82
2022/10/08 09:47:17;;;;;;;6.43;1.40;;;;;;;26.40;100.00;102066.56;5297244;28;20111;-83
2022/10/08 09:50:01;;;;;;;4.60;1.90;;;;;;;25.00;90.77;102075.03;5294806;28;20025;-83
2022/10/08 09:52:35;;;;;;;7.85;1.90;;;;;;;22.86;100.00;102076.56;5299015;28;20048;-83
2022/10/08 09:55:29;;;;;;;4.70;1.63;;;;;;;23.26;100.00;102078.81;5292794;28;20028;-83
2022/10/08 09:58:02;;;;;;;4.40;1.50;;;;;;;23.31;100.00;102088.06;5294070;28;20025;-83
2022/10/08 10:00:37;;;;;;;5.53;1.80;;;;;;;23.16;100.00;102088.16;5301957;28;20127;-83
2022/10/08 10:03:16;;;;;;;6.18;1.20;;;;;;;22.40;100.00;102104.06;5303394;28;20377;-83
2022/10/08 10:05:52;;;;;;;5.28;1.30;;;;;;;20.52;100.00;102091.16;5304052;28;20104;-83
2022/10/08 10:08:40;;;;;;;;;;;;;;;21.93;100.00;102092.53;5316598;28;20131;-83
2022/10/08 10:11:18;;;;;;;3.70;1.20;;;;;;;24.17;100.00;102092.41;5308845;28;19973;-83
2022/10/08 10:13:50;;;;;;;5.57;1.70;;;;;;;25.80;97.59;102096.84;5335400;27;20018;-84
2022/10/08 10:16:37;;;;;;;4.38;1.10;;;;;;;26.82;83.87;102088.03;5337769;27;20970;-83
2022/10/08 10:19:22;;;;;;;7.68;1.35;;;;;;;26.19;89.83;102095.06;5323434;27;20019;-83
2022/10/08 10:22:13;;;;;;;4.22;1.00;;;;;;;27.18;81.94;102098.28;5330008;27;20016;-83
2022/10/08 10:24:47;;;;;;;4.40;1.13;;;;;;;28.08;64.84;102091.53;5346104;27;20389;-83
2022/10/08 10:27:21;;;;;;;6.38;1.20;;;;;;;28.20;67.79;102106.13;5327368;27;20031;-83
2022/10/08 10:30:08;;;;;;;6.80;1.15;;;;;;;27.06;83.47;102100.06;5346627;27;20024;-83
2022/10/08 10:32:54;;;;;;;5.47;1.20;;;;;;;26.07;76.08;102096.78;5341024;27;20446;-83
2022/10/08 10:35:27;;;;;;;;;;;;;;;24.81;80.10;102109.44;5324464;28;20018;-83
2022/10/08 10:38:07;;;;;;;6.18;1.15;;;;;;;24.15;100.00;102103.50;5344945;27;20492;-83
2022/10/08 10:40:46;;;;;;;3.53;1.00;;;;;;;26.47;89.97;102113.84;5345815;27;20016;-83
2022/10/08 10:43:32;;;;;;;5.40;1.23;;;;;;;29.12;58.26;102112.47;5328576;27;20115;-83
2022/10/08 10:46:17;;;;;;;3.83;1.33;;;;;;;29.74;66.18;102109.28;5345132;27;20027;-83
2022/10/08 10:48:49;;;;;;;2.97;1.00;;;;;;;31.48;44.50;102109.03;5345243;27;20031;-83
2022/10/08 10:51:35;;;;;;;4.10;0.90;;;;;;;31.53;48.25;102105.56;5340144;27;20466;-83
2022/10/08 10:54:25;;;;;;;4.57;1.00;;;;;;;33.08;44.76;102115.41;5349231;27;20030;-84
2022/10/08 10:57:09;;;;;;;5.68;0.90;;;;;;;31.71;46.52;102119.03;5348892;27;20122;-83
2022/10/08 10:59:49;;;;;;;6.05;1.25;;;;;;;29.81;50.34;102114.72;5331030;27;20024;-84
2022/10/08 11:02:43;;;;;;;4.13;0.88;;;;;;;31.50;43.67;102114.31;5333970;27;20040;-83
2022/10/08 11:05:31;;;;;;;6.47;1.30;;;;;;;32.29;44.70;102118.72;5344015;27;20036;-83
2022/10/08 11:08:18;;;;;;;4.78;1.05;;;;;;;29.69;50.82;102111.94;5339592;27;20544;-83
2022/10/08 11:11:04;;;;;;;5.57;0.90;;;;;;;27.81;51.14;102116.47;5286625;27;1103968;-82
2022/10/08 11:14:03;;;;;;;2.90;1.00;;;;;;;26.83;68.04;102123.38;5346242;27;20035;-84
2022/10/08 11:17:19;;;;;;;3.15;1.10;;;;;;;27.82;52.44;102115.44;5343555;27;20073;-82
2022/10/08 11:20:18;;;;;;;4.43;1.40;;;;;;;29.36;51.87;102127.09;5348715;27;20031;-82
2022/10/08 11:23:11;;;;;;;2.90;0.90;;;;;;;29.54;50.00;102117.91;5349338;27;20377;-84
2022/10/08 11:26:24;;;;;;;6.00;1.08;;;;;;;28.56;53.13;102104.44;5343543;27;20085;-83
2022/10/08 11:29:06;;;;;;;5.93;0.98;;;;;;;26.12;52.61;102125.19;5349344;27;20630;-83
2022/10/08 11:32:02;;;;;;;7.68;1.20;;;;;;;24.48;85.57;102124.63;5347991;27;20444;-83
2022/10/08 11:34:37;;;;;;;2.80;1.08;;;;;;;22.02;100.00;102121.31;5347428;27;20122;-83
2022/10/08 11:37:24;;;;;;;6.35;1.20;;;;;;;21.45;100.00;102138.16;5330661;27;20061;-82
2022/10/08 11:40:01;;;;;;;6.57;1.20;;;;;;;23.14;100.00;102133.78;5332951;27;20027;-82
2022/10/08 11:42:56;;;;;;;6.28;1.13;;;;;;;26.17;89.75;102136.28;5338366;27;20027;-82
2022/10/08 11:45:29;;;;;;;5.28;1.10;;;;;;;26.44;74.55;102140.81;5333337;27;20489;-82
2022/10/08 11:48:34;;;;;;;6.63;0.98;;;;;;;27.97;68.87;102131.53;5334929;27;20229;-83
2022/10/08 11:51:20;;;;;;;3.13;0.90;;;;;;;29.08;53.07;102139.56;5339837;27;20040;-82
2022/10/08 11:54:20;;;;;;;3.05;1.40;;;;;;;30.47;48.30;102140.03;5320831;27;20032;-82
2022/10/08 11:57:20;;;;;;;4.75;1.00;;;;;;;29.44;45.31;102135.00;5336041;27;20028;-83